createdAt,value
2022-09-02T00:02:26.289Z,7.32
2022-09-02T00:04:53.964Z,7.03
2022-09-02T00:07:21.629Z,10.88
2022-09-02T00:09:49.276Z,5.60
2022-09-02T00:12:16.951Z,6.50
2022-09-02T00:14:44.589Z,6.13
2022-09-02T00:17:13.689Z,6.82
2022-09-02T00:19:41.499Z,5.22
2022-09-02T00:22:09.403Z,5.55
2022-09-02T00:24:37.258Z,8.63
2022-09-02T00:27:05.317Z,6.05
2022-09-02T00:29:33.016Z,6.13
2022-09-02T00:32:00.958Z,6.88
2022-09-02T00:34:30.106Z,5.50
2022-09-02T00:36:57.817Z,9.38
2022-09-02T00:39:26.103Z,7.45
2022-09-02T00:41:54.090Z,7.05
2022-09-02T00:44:22.472Z,5.53
2022-09-02T00:46:50.110Z,5.47
2022-09-02T00:49:24.223Z,6.70
2022-09-02T00:51:57.691Z,6.63
2022-09-02T00:54:29.073Z,5.50
2022-09-02T00:56:57.333Z,5.80
2022-09-02T00:59:31.362Z,7.15
2022-09-02T01:01:59.118Z,6.65
2022-09-02T01:04:27.533Z,7.93
2022-09-02T01:06:56.858Z,6.85
2022-09-02T01:09:24.517Z,7.45
2022-09-02T01:11:53.504Z,6.32
2022-09-02T01:14:21.223Z,6.10
2022-09-02T01:16:52.490Z,7.13
2022-09-02T01:19:24.969Z,6.40
2022-09-02T01:21:55.169Z,6.93
2022-09-02T01:24:26.549Z,6.30
2022-09-02T01:26:56.576Z,5.88
2022-09-02T01:29:25.452Z,6.78
2022-09-02T01:31:53.661Z,6.07
2022-09-02T01:34:22.806Z,6.95
2022-09-02T01:36:50.460Z,6.35
2022-09-02T01:39:19.473Z,6.60
2022-09-02T01:41:47.306Z,5.78
2022-09-02T01:44:16.098Z,6.95
2022-09-02T01:46:43.808Z,7.47
2022-09-02T01:49:11.510Z,7.13
2022-09-02T01:51:39.139Z,8.07
2022-09-02T01:54:07.295Z,6.95
2022-09-02T01:56:36.327Z,7.60
2022-09-02T01:59:04.586Z,8.05
2022-09-02T02:01:32.397Z,5.88
2022-09-02T02:04:01.018Z,7.30
2022-09-02T02:06:29.052Z,7.97
2022-09-02T02:08:56.700Z,7.00
2022-09-02T02:11:26.239Z,8.05
2022-09-02T02:13:55.279Z,7.03
2022-09-02T02:16:23.061Z,7.10
2022-09-02T02:18:50.775Z,8.10
2022-09-02T02:21:18.456Z,6.13
2022-09-02T02:23:48.539Z,7.65
2022-09-02T02:26:16.446Z,6.82
2022-09-02T02:28:44.480Z,7.25
2022-09-02T02:31:13.846Z,8.07
2022-09-02T02:33:41.702Z,6.40
2022-09-02T02:36:10.210Z,7.00
2022-09-02T02:38:40.000Z,7.68
2022-09-02T02:41:08.370Z,8.57
2022-09-02T02:43:36.992Z,7.05
2022-09-02T02:46:05.494Z,6.15
2022-09-02T02:48:35.462Z,8.20
2022-09-02T02:51:03.793Z,7.40
2022-09-02T02:53:32.200Z,6.70
2022-09-02T02:56:00.481Z,7.10
2022-09-02T02:58:28.227Z,7.65
2022-09-02T03:00:56.356Z,6.80
2022-09-02T03:03:24.354Z,6.93
2022-09-02T03:05:53.793Z,7.47
2022-09-02T03:08:22.319Z,6.80
2022-09-02T03:10:54.296Z,7.55
2022-09-02T03:13:22.945Z,6.28
2022-09-02T03:15:51.639Z,7.20
2022-09-02T03:18:20.146Z,11.65
2022-09-02T03:20:47.859Z,6.88
2022-09-02T03:23:17.928Z,8.20
2022-09-02T03:25:46.654Z,8.80
2022-09-02T03:28:15.362Z,9.70
2022-09-02T03:30:43.622Z,8.15
2022-09-02T03:33:11.294Z,7.45
2022-09-02T03:35:41.014Z,7.75
2022-09-02T03:38:09.762Z,9.27
2022-09-02T03:40:40.127Z,7.97
2022-09-02T03:43:07.893Z,8.88
2022-09-02T03:45:35.973Z,6.88
2022-09-02T03:48:04.495Z,7.70
2022-09-02T03:50:34.166Z,8.38
2022-09-02T03:53:02.175Z,8.75
2022-09-02T03:55:30.647Z,6.72
2022-09-02T03:58:00.310Z,8.10
2022-09-02T04:00:30.409Z,8.10
2022-09-02T04:02:58.324Z,9.45
2022-09-02T04:05:26.350Z,7.47
2022-09-02T04:10:22.118Z,8.63
2022-09-02T04:12:50.636Z,8.88
2022-09-02T04:15:21.434Z,7.97
2022-09-02T04:17:49.266Z,9.53
2022-09-02T04:20:17.985Z,8.05
2022-09-02T04:22:45.713Z,8.07
2022-09-02T04:25:13.725Z,7.45
2022-09-02T04:27:41.644Z,9.80
2022-09-02T04:30:10.822Z,8.50
2022-09-02T04:32:40.903Z,7.93
2022-09-02T04:35:09.577Z,7.55
2022-09-02T04:37:37.349Z,9.20
2022-09-02T04:40:05.850Z,7.40
2022-09-02T04:42:34.281Z,6.80
2022-09-02T04:45:02.001Z,8.10
2022-09-02T04:47:29.597Z,8.20
2022-09-02T04:49:58.692Z,7.88
2022-09-02T04:52:27.059Z,8.30
2022-09-02T04:54:54.736Z,10.68
2022-09-02T04:57:22.577Z,8.32
2022-09-02T04:59:50.218Z,6.60
2022-09-02T05:02:20.265Z,11.75
2022-09-02T05:04:48.057Z,9.43
2022-09-02T05:07:17.124Z,8.52
2022-09-02T05:09:45.027Z,8.07
2022-09-02T05:12:13.198Z,8.93
2022-09-02T05:14:40.983Z,9.07
2022-09-02T05:17:08.674Z,9.48
2022-09-02T05:19:36.354Z,7.80
2022-09-02T05:22:04.552Z,7.90
2022-09-02T05:24:33.632Z,7.15
2022-09-02T05:27:01.302Z,6.95
2022-09-02T05:29:29.058Z,7.05
2022-09-02T05:31:56.661Z,6.38
2022-09-02T05:34:24.814Z,7.88
2022-09-02T05:36:52.600Z,6.70
2022-09-02T05:39:20.370Z,6.47
2022-09-02T05:41:49.465Z,7.38
2022-09-02T05:44:17.104Z,5.80
2022-09-02T05:46:48.696Z,8.07
2022-09-02T05:49:18.246Z,5.13
2022-09-02T05:51:48.802Z,5.22
2022-09-02T05:54:19.157Z,5.35
2022-09-02T05:56:53.706Z,5.97
2022-09-02T05:59:21.978Z,5.93
2022-09-02T06:01:50.078Z,5.70
2022-09-02T06:04:18.201Z,5.75
2022-09-02T06:06:45.878Z,6.43
2022-09-02T06:09:16.685Z,5.75
2022-09-02T06:11:49.215Z,5.97
2022-09-02T06:14:20.721Z,4.10
2022-09-02T06:16:50.347Z,4.53
2022-09-02T06:19:20.405Z,5.05
2022-09-02T06:21:48.971Z,3.80
2022-09-02T06:24:16.794Z,3.92
2022-09-02T06:26:45.433Z,3.63
2022-09-02T06:29:13.679Z,4.82
2022-09-02T06:31:44.319Z,3.30
2022-09-02T06:34:14.651Z,4.00
2022-09-02T06:36:43.270Z,3.47
2022-09-02T06:39:13.359Z,5.75
2022-09-02T06:41:42.577Z,4.80
2022-09-02T06:44:12.318Z,4.07
2022-09-02T06:46:47.307Z,6.68
2022-09-02T06:49:16.238Z,5.13
2022-09-02T06:51:45.514Z,4.28
2022-09-02T06:54:16.374Z,5.78
2022-09-02T06:56:48.731Z,5.32
2022-09-02T06:59:17.184Z,3.58
2022-09-02T07:01:47.363Z,4.45
2022-09-02T07:04:33.331Z,4.47
2022-09-02T07:07:01.092Z,5.43
2022-09-02T07:09:31.138Z,4.18
2022-09-02T07:12:04.276Z,4.80
2022-09-02T07:14:36.915Z,4.90
2022-09-02T07:17:06.875Z,5.13
2022-09-02T07:19:34.823Z,4.05
2022-09-02T07:22:04.002Z,4.05
2022-09-02T07:24:31.718Z,3.55
2022-09-02T07:26:59.434Z,3.55
2022-09-02T07:29:27.457Z,4.07
2022-09-02T07:31:55.166Z,3.90
2022-09-02T07:34:24.275Z,3.33
2022-09-02T07:36:52.561Z,3.08
2022-09-02T07:39:20.590Z,5.25
2022-09-02T07:41:50.271Z,2.92
2022-09-02T07:44:18.947Z,5.43
2022-09-02T07:46:46.939Z,4.70
2022-09-02T07:49:15.767Z,4.05
2022-09-02T07:51:49.440Z,6.20
2022-09-02T07:54:18.809Z,5.13
2022-09-02T07:56:46.604Z,3.78
2022-09-02T07:59:14.247Z,2.95
2022-09-02T08:04:18.643Z,5.47
2022-09-02T08:06:47.914Z,2.90
2022-09-02T08:09:15.701Z,5.88
2022-09-02T08:11:46.458Z,7.60
2022-09-02T08:14:18.047Z,6.18
2022-09-02T08:16:47.072Z,5.70
2022-09-02T08:19:15.719Z,5.70
2022-09-02T08:21:43.384Z,4.57
2022-09-02T08:24:12.505Z,4.32
2022-09-02T08:26:40.174Z,5.68
2022-09-02T08:29:09.603Z,4.95
2022-09-02T08:31:38.907Z,4.68
2022-09-02T08:34:07.029Z,3.83
2022-09-02T08:36:34.946Z,3.83
2022-09-02T08:39:04.601Z,5.55
2022-09-02T08:41:41.249Z,3.42
2022-09-02T08:44:11.537Z,4.82
2022-09-02T08:46:39.499Z,4.15
2022-09-02T08:49:11.781Z,6.25
2022-09-02T08:51:51.024Z,4.63
2022-09-02T08:54:27.293Z,4.95
2022-09-02T08:56:58.926Z,4.88
2022-09-02T08:59:29.331Z,4.53
2022-09-02T09:02:13.600Z,4.93
2022-09-02T09:05:12.860Z,5.15
2022-09-02T09:07:54.607Z,5.45
2022-09-02T09:10:29.729Z,2.47
2022-09-02T09:13:20.987Z,2.70
2022-09-02T09:15:55.229Z,5.80
2022-09-02T09:18:32.167Z,4.88
2022-09-02T09:20:59.932Z,4.35
2022-09-02T09:23:34.233Z,6.22
2022-09-02T09:26:08.429Z,5.45
2022-09-02T09:28:43.514Z,4.40
2022-09-02T09:31:15.062Z,1.92
2022-09-02T09:33:56.471Z,2.53
2022-09-02T09:36:45.026Z,3.05
2022-09-02T09:39:20.067Z,2.45
2022-09-02T09:41:49.611Z,1.77
2022-09-02T09:44:43.229Z,3.20
2022-09-02T09:47:17.932Z,1.45
2022-09-02T09:49:46.983Z,3.90
2022-09-02T09:52:24.497Z,2.42
2022-09-02T09:55:12.357Z,3.55
2022-09-02T09:57:44.682Z,3.17
2022-09-02T10:00:26.732Z,3.05
2022-09-02T10:02:57.881Z,3.17
2022-09-02T10:05:33.050Z,2.15
2022-09-02T10:08:03.259Z,2.67
2022-09-02T10:10:33.430Z,2.22
2022-09-02T10:16:12.207Z,4.60
2022-09-02T10:18:44.849Z,2.70
2022-09-02T10:21:27.965Z,3.30
2022-09-02T10:24:05.700Z,1.85
2022-09-02T10:27:23.754Z,2.80
2022-09-02T10:29:58.940Z,1.95
2022-09-02T10:32:43.236Z,4.05
2022-09-02T10:35:19.486Z,2.83
2022-09-02T10:38:01.846Z,2.30
2022-09-02T10:40:37.464Z,1.48
2022-09-02T10:43:07.570Z,1.88
2022-09-02T10:46:01.257Z,1.77
2022-09-02T10:48:40.775Z,1.00
2022-09-02T10:51:17.486Z,2.88
2022-09-02T10:54:17.642Z,2.25
2022-09-02T10:56:50.868Z,3.75
2022-09-02T10:59:23.001Z,2.97
2022-09-02T11:01:57.101Z,2.42
2022-09-02T11:04:38.877Z,1.10
2022-09-02T11:07:10.768Z,1.67
2022-09-02T11:09:42.411Z,1.65
2022-09-02T11:12:16.708Z,1.48
2022-09-02T11:14:56.253Z,1.23
2022-09-02T11:17:30.788Z,3.72
2022-09-02T11:20:09.488Z,3.45
2022-09-02T11:22:46.065Z,1.20
2022-09-02T11:25:18.675Z,1.65
2022-09-02T11:27:50.348Z,1.27
2022-09-02T11:30:21.509Z,2.15
2022-09-02T11:32:56.566Z,2.13
2022-09-02T11:35:27.942Z,2.78
2022-09-02T11:38:02.261Z,1.80
2022-09-02T11:40:39.096Z,4.63
2022-09-02T11:43:28.983Z,1.70
2022-09-02T11:46:28.319Z,1.45
2022-09-02T11:49:11.419Z,4.60
2022-09-02T11:52:04.389Z,1.20
2022-09-02T11:54:37.258Z,2.58
2022-09-02T11:57:07.298Z,4.10
2022-09-02T12:00:10.703Z,1.88
2022-09-02T12:02:46.134Z,0.90
2022-09-02T12:06:06.097Z,4.43
2022-09-02T12:09:09.413Z,1.73
2022-09-02T12:11:50.815Z,1.90
2022-09-02T12:15:07.448Z,2.80
2022-09-02T12:17:40.725Z,0.90
2022-09-02T12:20:11.148Z,2.03
2022-09-02T19:55:58.920Z,5.20
2022-09-02T19:58:27.690Z,2.67
2022-09-02T20:00:56.980Z,3.22
2022-09-02T20:03:24.791Z,3.90
2022-09-02T20:05:53.526Z,2.10
2022-09-02T20:08:31.146Z,5.57
2022-09-02T20:11:01.295Z,4.15
2022-09-02T20:13:30.841Z,2.70
2022-09-02T20:15:58.619Z,3.63
2022-09-02T20:18:29.539Z,1.95
2022-09-02T20:20:59.913Z,1.95
2022-09-02T20:23:33.315Z,2.63
2022-09-02T20:26:12.252Z,7.40
2022-09-02T20:28:59.343Z,2.35
2022-09-02T20:31:42.360Z,2.92
2022-09-02T20:34:28.096Z,1.98
2022-09-02T20:37:05.711Z,2.33
2022-09-02T20:39:54.247Z,3.95
2022-09-02T20:42:48.639Z,3.97
2022-09-02T20:45:25.121Z,2.85
2022-09-02T20:48:02.144Z,3.85
